Time;durP1;ratioP1;P1;durP2;ratioP2;P2;SDS_P1;SDS_P2;PMS_P1;PMS_P2;Temp;Humidity;BMP_temperature;BMP_pressure;BME280_temperature;BME280_humidity;BME280_pressure;Samples;Min_cycle;Max_cycle;Signal;HPM_P1;HPM_P2
2021/12/05 00:22:58;;;;;;;;;;;;;;;;;;110326;1278;9066;-79
2021/12/05 00:25:29;;;;;;;;;;;;;;;;;;110490;1277;8849;-77
2021/12/05 00:28:20;;;;;;;;;;;;;;;;;;110790;1277;8784;-75
2021/12/05 00:55:35;;;;;;;;;;;;;;;;;;110950;1276;8372;-77
2021/12/05 01:09:22;;;;;;;;;;;;;;;;;;110966;1276;8784;-76
2021/12/05 01:18:13;;;;;;;;;;;;;;;;;;110544;1277;9718;-76
2021/12/05 01:20:55;;;;;;;;;;;;;;;;;;110655;1276;9036;-77
2021/12/05 01:26:28;;;;;;;;;;;;;;;;;;110835;1275;9688;-77
2021/12/05 01:31:48;;;;;;;;;;;;;;;;;;110960;1275;8109;-78
2021/12/05 01:37:08;;;;;;;;;;;;;;;;;;110947;1276;8794;-77
2021/12/05 01:51:04;;;;;;;;;;;;;;;;;;110513;1278;8940;-76
2021/12/05 02:15:56;;;;;;;;;;;;;;;;;;110399;1282;8840;-76
2021/12/05 02:32:48;;;;;;;;;;;;;;;;;;110499;1275;8028;-76
2021/12/05 02:43:12;;;;;;;;;;;;;;;;;;110953;1274;8773;-76
2021/12/05 02:45:45;;;;;;;;;;;;;;;;;;110484;1278;8486;-77
2021/12/05 02:48:15;;;;;;;;;;;;;;;;;;110979;1275;9687;-75
2021/12/05 02:50:44;;;;;;;;;;;;;;;;;;110931;1276;8055;-76
2021/12/05 02:53:19;;;;;;;;;;;;;;;;;;110399;1279;8808;-76
2021/12/05 02:55:49;;;;;;;;;;;;;;;;;;110562;1276;8936;-78
2021/12/05 03:01:08;;;;;;;;;;;;;;;;;;110946;1275;9721;-76
2021/12/05 03:03:37;;;;;;;;;;;;;;;;;;110823;1276;9152;-76
2021/12/05 03:06:14;;;;;;;;;;;;;;;;;;110831;1275;9364;-75
2021/12/05 03:08:46;;;;;;;;;;;;;;;;;;110808;1274;9724;-77
2021/12/05 03:11:16;;;;;;;;;;;;;;;;;;110917;1274;8139;-77
2021/12/05 03:13:43;;;;;;;;;;;;;;;;;;110960;1275;8785;-78
2021/12/05 03:16:31;;;;;;;;;;;;;;;;;;110828;1276;9704;-78
2021/12/05 03:19:00;;;;;;;;;;;;;;;;;;110972;1276;7980;-78
2021/12/05 03:21:30;;;;;;;;;;;;;;;;;;110918;1274;8360;-77
2021/12/05 03:23:59;;;;;;;;;;;;;;;;;;110567;1276;8775;-77
2021/12/05 03:26:44;;;;;;;;;;;;;;;;;;110764;1275;7981;-77
2021/12/05 03:29:15;;;;;;;;;;;;;;;;;;110574;1276;9706;-76
2021/12/05 03:31:43;;;;;;;;;;;;;;;;;;110515;1276;8784;-77
2021/12/05 03:34:13;;;;;;;;;;;;;;;;;;110838;1276;9706;-78
2021/12/05 03:36:44;;;;;;;;;;;;;;;;;;110929;1276;8010;-78
2021/12/05 03:39:12;;;;;;;;;;;;;;;;;;110935;1275;8765;-78
2021/12/05 03:41:42;;;;;;;;;;;;;;;;;;110929;1274;9706;-78
2021/12/05 03:44:13;;;;;;;;;;;;;;;;;;110822;1276;8944;-78
2021/12/05 03:46:41;;;;;;;;;;;;;;;;;;110215;1279;8029;-78
2021/12/05 03:49:13;;;;;;;;;;;;;;;;;;110950;1274;9035;-77
2021/12/05 03:51:48;;;;;;;;;;;;;;;;;;110964;1275;7966;-77
2021/12/05 03:54:16;;;;;;;;;;;;;;;;;;110859;1276;8923;-78
2021/12/05 03:56:47;;;;;;;;;;;;;;;;;;110776;1276;9689;-77
2021/12/05 03:59:18;;;;;;;;;;;;;;;;;;110908;1276;9690;-77
2021/12/05 04:01:47;;;;;;;;;;;;;;;;;;110945;1276;8871;-76
2021/12/05 04:04:18;;;;;;;;;;;;;;;;;;110956;1274;9034;-75
2021/12/05 04:06:46;;;;;;;;;;;;;;;;;;110946;1276;8360;-77
2021/12/05 04:09:17;;;;;;;;;;;;;;;;;;110923;1276;9690;-77
2021/12/05 04:11:59;;;;;;;;;;;;;;;;;;110464;1277;8961;-75
2021/12/05 04:14:38;;;;;;;;;;;;;;;;;;110918;1274;9707;-75
2021/12/05 04:17:10;;;;;;;;;;;;;;;;;;110934;1274;9329;-76
2021/12/05 04:19:39;;;;;;;;;;;;;;;;;;110948;1275;8008;-75
2021/12/05 04:22:08;;;;;;;;;;;;;;;;;;110608;1276;9709;-75
2021/12/05 04:24:37;;;;;;;;;;;;;;;;;;110995;1274;8936;-75
2021/12/05 04:27:06;;;;;;;;;;;;;;;;;;110271;1276;8367;-75
2021/12/05 04:29:36;;;;;;;;;;;;;;;;;;110793;1276;9443;-75
2021/12/05 04:32:06;;;;;;;;;;;;;;;;;;110970;1276;9707;-75
2021/12/05 04:34:35;;;;;;;;;;;;;;;;;;110498;1276;8055;-76
2021/12/05 04:37:04;;;;;;;;;;;;;;;;;;110601;1276;9053;-75
2021/12/05 04:39:33;;;;;;;;;;;;;;;;;;110471;1273;178068;-77
2021/12/05 04:42:02;;;;;;;;;;;;;;;;;;110771;1276;8372;-76
2021/12/05 04:44:30;;;;;;;;;;;;;;;;;;110518;1278;9705;-77
2021/12/05 04:47:01;;;;;;;;;;;;;;;;;;110475;1278;8803;-75
2021/12/05 04:49:30;;;;;;;;;;;;;;;;;;110973;1276;8780;-75
2021/12/05 04:51:58;;;;;;;;;;;;;;;;;;110199;1277;9708;-75
2021/12/05 04:54:26;;;;;;;;;;;;;;;;;;110948;1275;9757;-76
2021/12/05 04:56:54;;;;;;;;;;;;;;;;;;110976;1276;9050;-76
2021/12/05 04:59:34;;;;;;;;;;;;;;;;;;110505;1277;10035;-75
2021/12/05 05:02:04;;;;;;;;;;;;;;;;;;110946;1275;9155;-75
2021/12/05 05:04:39;;;;;;;;;;;;;;;;;;110929;1274;8782;-75
2021/12/05 05:07:15;;;;;;;;;;;;;;;;;;110620;1276;8699;-76
2021/12/05 05:09:45;;;;;;;;;;;;;;;;;;110855;1275;8012;-76
2021/12/05 05:12:13;;;;;;;;;;;;;;;;;;110947;1275;8770;-76
2021/12/05 05:14:41;;;;;;;;;;;;;;;;;;110762;1277;9788;-75
2021/12/05 05:17:09;;;;;;;;;;;;;;;;;;110933;1276;8376;-75
2021/12/05 05:19:53;;;;;;;;;;;;;;;;;;110809;1277;8912;-75
2021/12/05 05:51:25;;;;;;;;;;;;;;;;;;110943;1276;8374;-76
2021/12/05 05:53:53;;;;;;;;;;;;;;;;;;110955;1274;8784;-77
2021/12/05 05:56:25;;;;;;;;;;;;;;;;;;110923;1276;9703;-77
2021/12/05 05:59:00;;;;;;;;;;;;;;;;;;110464;1277;7989;-76
2021/12/05 06:01:56;;;;;;;;;;;;;;;;;;110780;1277;8953;-75
2021/12/05 06:04:21;;;;;;;;;;;;;;;;;;110461;1277;8781;-77
2021/12/05 06:06:51;;;;;;;;;;;;;;;;;;110433;1278;9698;-78
2021/12/05 06:09:19;;;;;;;;;;;;;;;;;;110501;1277;8034;-78
2021/12/05 06:11:47;;;;;;;;;;;;;;;;;;110494;1276;8945;-75
2021/12/05 06:14:15;;;;;;;;;;;;;;;;;;110955;1275;9688;-75
2021/12/05 06:16:43;;;;;;;;;;;;;;;;;;110826;1276;9706;-74
2021/12/05 06:19:12;;;;;;;;;;;;;;;;;;110793;1276;8000;-76
2021/12/05 06:21:40;;;;;;;;;;;;;;;;;;110767;1275;9693;-75
2021/12/05 06:24:08;;;;;;;;;;;;;;;;;;110474;1278;8373;-76
2021/12/05 06:26:36;;;;;;;;;;;;;;;;;;110783;1277;9723;-76
2021/12/05 06:47:45;;;;;;;;;;;;;;;;;;110936;1276;8009;-78
2021/12/05 06:50:13;;;;;;;;;;;;;;;;;;110957;1276;9754;-79
2021/12/05 06:52:43;;;;;;;;;;;;;;;;;;110955;1276;9433;-79
2021/12/05 06:55:15;;;;;;;;;;;;;;;;;;110468;1279;8030;-75
2021/12/05 06:57:44;;;;;;;;;;;;;;;;;;110782;1277;9690;-76
2021/12/05 07:00:17;;;;;;;;;;;;;;;;;;110955;1274;9710;-76
2021/12/05 07:02:45;;;;;;;;;;;;;;;;;;110976;1274;7930;-78
2021/12/05 07:07:48;;;;;;;;;;;;;;;;;;110931;1274;8018;-77
2021/12/05 07:10:18;;;;;;;;;;;;;;;;;;110525;1276;8961;-76
2021/12/05 07:15:57;;;;;;;;;;;;;;;;;;110271;1278;8993;-76
2021/12/05 07:42:43;;;;;;;;;;;;;;;;;;110933;1274;8010;-77
2021/12/05 07:45:20;;;;;;;;;;;;;;;;;;110927;1276;9775;-78
2021/12/05 07:48:10;;;;;;;;;;;;;;;;;;110822;1275;8046;-77
2021/12/05 07:50:48;;;;;;;;;;;;;;;;;;110606;1276;8371;-77
2021/12/05 07:53:30;;;;;;;;;;;;;;;;;;110963;1276;7987;-78
2021/12/05 07:56:08;;;;;;;;;;;;;;;;;;110953;1274;9721;-77
2021/12/05 07:58:55;;;;;;;;;;;;;;;;;;110970;1276;8884;-76
2021/12/05 08:15:31;;;;;;;;;;;;;;;;;;110952;1276;7976;-78
2021/12/05 08:18:02;;;;;;;;;;;;;;;;;;110941;1276;8018;-80
2021/12/05 08:20:32;;;;;;;;;;;;;;;;;;110957;1274;8360;-76
2021/12/05 08:23:04;;;;;;;;;;;;;;;;;;110836;1274;8913;-78
2021/12/05 08:25:35;;;;;;;;;;;;;;;;;;110964;1274;8931;-74
2021/12/05 08:33:50;;;;;;;;;;;;;;;;;;110803;1276;8770;-79
2021/12/05 08:36:57;;;;;;;;;;;;;;;;;;110842;1276;9687;-80
2021/12/05 09:24:17;;;;;;;;;;;;;;;;;;110510;1279;8895;-82
2021/12/05 10:06:43;;;;;;;;;;;;;;;;;;110645;1276;9343;-82
2021/12/05 10:15:39;;;;;;;;;;;;;;;;;;110824;1276;8008;-79
2021/12/05 10:37:29;;;;;;;;;;;;;;;;;;110524;1277;8937;-80
2021/12/05 10:40:12;;;;;;;;;;;;;;;;;;110836;1275;8037;-79
2021/12/05 10:42:44;;;;;;;;;;;;;;;;;;110892;1275;9693;-80
2021/12/05 10:45:21;;;;;;;;;;;;;;;;;;110924;1274;8793;-79
2021/12/05 10:47:51;;;;;;;;;;;;;;;;;;110817;1276;8407;-78
2021/12/05 10:50:45;;;;;;;;;;;;;;;;;;110964;1274;9003;-81
2021/12/05 10:53:25;;;;;;;;;;;;;;;;;;110482;1275;9694;-80
2021/12/05 10:55:59;;;;;;;;;;;;;;;;;;110920;1273;8369;-81
2021/12/05 10:58:54;;;;;;;;;;;;;;;;;;110589;1274;9701;-82
2021/12/05 11:01:43;;;;;;;;;;;;;;;;;;110756;1276;8934;-83
2021/12/05 11:04:24;;;;;;;;;;;;;;;;;;110550;1276;7980;-80
2021/12/05 11:06:54;;;;;;;;;;;;;;;;;;110519;1276;9696;-81
2021/12/05 11:09:33;;;;;;;;;;;;;;;;;;110468;1276;8357;-80
2021/12/05 11:12:09;;;;;;;;;;;;;;;;;;110715;1276;9693;-80
2021/12/05 11:14:39;;;;;;;;;;;;;;;;;;110783;1276;10103;-79
2021/12/05 11:17:13;;;;;;;;;;;;;;;;;;110510;1276;9687;-79
2021/12/05 11:19:49;;;;;;;;;;;;;;;;;;110542;1274;9694;-82
2021/12/05 11:22:24;;;;;;;;;;;;;;;;;;110522;1277;8764;-79
2021/12/05 11:24:54;;;;;;;;;;;;;;;;;;110523;1277;8805;-79
2021/12/05 11:27:45;;;;;;;;;;;;;;;;;;110504;1276;8941;-76
2021/12/05 11:30:22;;;;;;;;;;;;;;;;;;110639;1276;8361;-82
2021/12/05 11:32:55;;;;;;;;;;;;;;;;;;110817;1275;8469;-80
2021/12/05 11:35:26;;;;;;;;;;;;;;;;;;110780;1276;8372;-81
2021/12/05 11:38:03;;;;;;;;;;;;;;;;;;110792;1276;9677;-81
2021/12/05 11:40:51;;;;;;;;;;;;;;;;;;110785;1277;8924;-78
2021/12/05 11:43:25;;;;;;;;;;;;;;;;;;110944;1275;9711;-79
2021/12/05 11:46:00;;;;;;;;;;;;;;;;;;110995;1276;9687;-81
2021/12/05 11:48:32;;;;;;;;;;;;;;;;;;110757;1276;9794;-80
2021/12/05 11:51:17;;;;;;;;;;;;;;;;;;110805;1276;7982;-77
2021/12/05 11:54:08;;;;;;;;;;;;;;;;;;110795;1276;9687;-79
2021/12/05 11:56:42;;;;;;;;;;;;;;;;;;110448;1278;8021;-81
2021/12/05 11:59:17;;;;;;;;;;;;;;;;;;110274;1277;9724;-81
2021/12/05 12:02:09;;;;;;;;;;;;;;;;;;110278;1277;9033;-79
2021/12/05 12:04:54;;;;;;;;;;;;;;;;;;110326;1276;8383;-79
2021/12/05 12:07:26;;;;;;;;;;;;;;;;;;110244;1279;8788;-79
2021/12/05 12:09:58;;;;;;;;;;;;;;;;;;110517;1276;8015;-80
2021/12/05 12:12:30;;;;;;;;;;;;;;;;;;110460;1276;8018;-80
2021/12/05 12:15:04;;;;;;;;;;;;;;;;;;110941;1274;8930;-80
2021/12/05 12:17:38;;;;;;;;;;;;;;;;;;110793;1276;9702;-80
2021/12/05 12:20:11;;;;;;;;;;;;;;;;;;110525;1276;9693;-79
2021/12/05 12:22:40;;;;;;;;;;;;;;;;;;110513;1276;8055;-77
2021/12/05 12:25:18;;;;;;;;;;;;;;;;;;110950;1276;9724;-77
2021/12/05 12:27:50;;;;;;;;;;;;;;;;;;110939;1276;8891;-78
2021/12/05 12:30:25;;;;;;;;;;;;;;;;;;110940;1274;8880;-79
2021/12/05 12:33:23;;;;;;;;;;;;;;;;;;110645;1276;9728;-80
2021/12/05 12:35:51;;;;;;;;;;;;;;;;;;110719;1275;8096;-78
2021/12/05 12:38:24;;;;;;;;;;;;;;;;;;110834;1276;9745;-81
2021/12/05 12:41:19;;;;;;;;;;;;;;;;;;110814;1275;165521;-82
2021/12/05 12:44:27;;;;;;;;;;;;;;;;;;;;;
2021/12/05 12:47:35;;;;;;;;;;;;;;;;;;110948;1274;8569;-82
2021/12/05 12:50:40;;;;;;;;;;;;;;;;;;;;;
2021/12/05 12:53:37;;;;;;;;;;;;;;;;;;110505;1276;9702;-79
2021/12/05 12:56:10;;;;;;;;;;;;;;;;;;110779;1276;8014;-80
2021/12/05 12:58:46;;;;;;;;;;;;;;;;;;110410;1276;8097;-82
2021/12/05 13:01:31;;;;;;;;;;;;;;;;;;110487;1276;9713;-83
2021/12/05 13:04:49;;;;;;;;;;;;;;;;;;110757;1277;8937;-82
2021/12/05 13:10:22;;;;;;;;;;;;;;;;;;110602;1275;8788;-76
2021/12/05 13:12:55;;;;;;;;;;;;;;;;;;110743;1276;7985;-79
2021/12/05 13:15:29;;;;;;;;;;;;;;;;;;110459;1277;9697;-75
2021/12/05 13:18:05;;;;;;;;;;;;;;;;;;110269;1279;8758;-77
2021/12/05 13:20:42;;;;;;;;;;;;;;;;;;110548;1276;9513;-78
2021/12/05 13:23:10;;;;;;;;;;;;;;;;;;110882;1275;8768;-77
2021/12/05 13:26:06;;;;;;;;;;;;;;;;;;110951;1276;9694;-75
2021/12/05 13:28:53;;;;;;;;;;;;;;;;;;110803;1275;9083;-77
2021/12/05 13:31:26;;;;;;;;;;;;;;;;;;110782;1277;8803;-77
2021/12/05 13:34:16;;;;;;;;;;;;;;;;;;110773;1277;8380;-76
2021/12/05 13:36:49;;;;;;;;;;;;;;;;;;110533;1277;8771;-80
2021/12/05 13:39:49;;;;;;;;;;;;;;;;;;110761;1277;7975;-80
2021/12/05 13:42:44;;;;;;;;;;;;;;;;;;110505;1277;9719;-81
2021/12/05 13:45:25;;;;;;;;;;;;;;;;;;110794;1277;8765;-75
2021/12/05 13:47:55;;;;;;;;;;;;;;;;;;110942;1276;8375;-78
2021/12/05 13:50:32;;;;;;;;;;;;;;;;;;110777;1277;9754;-76
2021/12/05 13:53:02;;;;;;;;;;;;;;;;;;110777;1277;10011;-73
2021/12/05 13:55:39;;;;;;;;;;;;;;;;;;110198;1279;8006;-74
2021/12/05 13:58:22;;;;;;;;;;;;;;;;;;110797;1277;9705;-73
2021/12/05 14:00:53;;;;;;;;;;;;;;;;;;110488;1277;9677;-74
2021/12/05 14:04:05;;;;;;;;;;;;;;;;;;;;;
2021/12/05 14:06:54;;;;;;;;;;;;;;;;;;110615;1277;8804;-75
2021/12/05 14:10:01;;;;;;;;;;;;;;;;;;110700;1277;7979;-76
2021/12/05 14:12:38;;;;;;;;;;;;;;;;;;110732;1277;8183;-77
2021/12/05 14:15:08;;;;;;;;;;;;;;;;;;110271;1277;8961;-77
2021/12/05 14:17:44;;;;;;;;;;;;;;;;;;110545;1276;9032;-75
2021/12/05 14:20:12;;;;;;;;;;;;;;;;;;110561;1276;8856;-76
2021/12/05 14:22:43;;;;;;;;;;;;;;;;;;110601;1277;9207;-76
2021/12/05 14:25:15;;;;;;;;;;;;;;;;;;110728;1276;9708;-75
2021/12/05 14:27:48;;;;;;;;;;;;;;;;;;110530;1277;9708;-75
2021/12/05 14:30:21;;;;;;;;;;;;;;;;;;110161;1279;9572;-75
2021/12/05 14:32:57;;;;;;;;;;;;;;;;;;110789;1276;8776;-75
2021/12/05 14:35:32;;;;;;;;;;;;;;;;;;110806;1276;8373;-76
2021/12/05 14:38:04;;;;;;;;;;;;;;;;;;110284;1277;8380;-77
2021/12/05 14:40:52;;;;;;;;;;;;;;;;;;110250;1279;8307;-77
2021/12/05 14:43:24;;;;;;;;;;;;;;;;;;110798;1276;8922;-78
2021/12/05 14:45:59;;;;;;;;;;;;;;;;;;110775;1277;9759;-79
2021/12/05 14:48:31;;;;;;;;;;;;;;;;;;110781;1277;8017;-78
2021/12/05 14:51:01;;;;;;;;;;;;;;;;;;110780;1276;9690;-77
2021/12/05 14:53:47;;;;;;;;;;;;;;;;;;110567;1277;7990;-79
2021/12/05 14:56:26;;;;;;;;;;;;;;;;;;110483;1276;8942;-75
2021/12/05 14:59:20;;;;;;;;;;;;;;;;;;110387;1276;7979;-78
2021/12/05 15:01:51;;;;;;;;;;;;;;;;;;110212;1279;8379;-77
2021/12/05 15:04:24;;;;;;;;;;;;;;;;;;110179;1279;9697;-77
2021/12/05 15:06:52;;;;;;;;;;;;;;;;;;110482;1278;8784;-76
2021/12/05 15:09:23;;;;;;;;;;;;;;;;;;110357;1278;9703;-76
2021/12/05 15:12:12;;;;;;;;;;;;;;;;;;110440;1279;8801;-76
2021/12/05 15:14:43;;;;;;;;;;;;;;;;;;110332;1278;9690;-76
2021/12/05 15:17:19;;;;;;;;;;;;;;;;;;110151;1279;9781;-77
2021/12/05 15:19:51;;;;;;;;;;;;;;;;;;110585;1277;8364;-76
2021/12/05 15:22:39;;;;;;;;;;;;;;;;;;110299;1278;9696;-76
2021/12/05 15:25:11;;;;;;;;;;;;;;;;;;110809;1276;9110;-76
2021/12/05 15:27:39;;;;;;;;;;;;;;;;;;110487;1277;9697;-76
2021/12/05 15:30:13;;;;;;;;;;;;;;;;;;110529;1277;7970;-77
2021/12/05 15:32:43;;;;;;;;;;;;;;;;;;110706;1277;10025;-75
2021/12/05 15:35:15;;;;;;;;;;;;;;;;;;110452;1278;8227;-75
2021/12/05 15:37:52;;;;;;;;;;;;;;;;;;110456;1278;8173;-76
2021/12/05 15:40:22;;;;;;;;;;;;;;;;;;110458;1278;8926;-79
2021/12/05 15:42:51;;;;;;;;;;;;;;;;;;110203;1278;8793;-76
2021/12/05 15:45:24;;;;;;;;;;;;;;;;;;110254;1279;8788;-85
2021/12/05 15:47:55;;;;;;;;;;;;;;;;;;110400;1279;7981;-74
2021/12/05 15:50:25;;;;;;;;;;;;;;;;;;110397;1278;8806;-74
2021/12/05 15:52:55;;;;;;;;;;;;;;;;;;110499;1277;8025;-76
2021/12/05 15:55:24;;;;;;;;;;;;;;;;;;110759;1277;8784;-75
2021/12/05 15:58:02;;;;;;;;;;;;;;;;;;110451;1278;9690;-76
2021/12/05 16:00:33;;;;;;;;;;;;;;;;;;110796;1277;8926;-75
2021/12/05 16:03:04;;;;;;;;;;;;;;;;;;110427;1277;9705;-75
2021/12/05 16:05:34;;;;;;;;;;;;;;;;;;110785;1276;9990;-75
2021/12/05 16:08:22;;;;;;;;;;;;;;;;;;110510;1278;8372;-75
2021/12/05 16:10:57;;;;;;;;;;;;;;;;;;110449;1279;7979;-75
2021/12/05 16:13:45;;;;;;;;;;;;;;;;;;110844;1276;9687;-76
2021/12/05 16:16:16;;;;;;;;;;;;;;;;;;110928;1276;9678;-74
2021/12/05 16:19:04;;;;;;;;;;;;;;;;;;110950;1276;7997;-75
2021/12/05 16:21:37;;;;;;;;;;;;;;;;;;110931;1274;8820;-74
2021/12/05 16:24:10;;;;;;;;;;;;;;;;;;110967;1276;8802;-74
2021/12/05 16:26:38;;;;;;;;;;;;;;;;;;110960;1276;9687;-75
2021/12/05 16:29:09;;;;;;;;;;;;;;;;;;110978;1275;8808;-74
2021/12/05 16:31:40;;;;;;;;;;;;;;;;;;110810;1276;9696;-75
2021/12/05 16:34:17;;;;;;;;;;;;;;;;;;110932;1275;8371;-75
2021/12/05 16:37:05;;;;;;;;;;;;;;;;;;110942;1276;8920;-75
2021/12/05 16:39:33;;;;;;;;;;;;;;;;;;110666;1276;8040;-75
2021/12/05 16:42:03;;;;;;;;;;;;;;;;;;110952;1274;8938;-75
2021/12/05 16:44:34;;;;;;;;;;;;;;;;;;110788;1276;9451;-75
2021/12/05 16:47:08;;;;;;;;;;;;;;;;;;110925;1275;10121;-75
2021/12/05 16:49:39;;;;;;;;;;;;;;;;;;110828;1274;8406;-75
2021/12/05 16:52:30;;;;;;;;;;;;;;;;;;110964;1276;8920;-75
2021/12/05 16:55:10;;;;;;;;;;;;;;;;;;110898;1275;9692;-75
2021/12/05 16:57:44;;;;;;;;;;;;;;;;;;110955;1276;9698;-75
2021/12/05 17:00:17;;;;;;;;;;;;;;;;;;110916;1274;8855;-75
2021/12/05 17:02:51;;;;;;;;;;;;;;;;;;110948;1275;9766;-75
2021/12/05 17:05:26;;;;;;;;;;;;;;;;;;110461;1274;8117;-75
2021/12/05 17:08:10;;;;;;;;;;;;;;;;;;110768;1277;8376;-75
2021/12/05 17:10:56;;;;;;;;;;;;;;;;;;110499;1279;8815;-75
2021/12/05 17:13:35;;;;;;;;;;;;;;;;;;110772;1277;9701;-75
2021/12/05 17:16:03;;;;;;;;;;;;;;;;;;110491;1278;7980;-75
2021/12/05 17:18:34;;;;;;;;;;;;;;;;;;110473;1274;9693;-75
2021/12/05 17:21:22;;;;;;;;;;;;;;;;;;110926;1274;9981;-75
2021/12/05 17:23:53;;;;;;;;;;;;;;;;;;110708;1276;8103;-75
2021/12/05 17:26:24;;;;;;;;;;;;;;;;;;110963;1276;8422;-75
2021/12/05 17:28:54;;;;;;;;;;;;;;;;;;110962;1275;9696;-75
2021/12/05 17:31:25;;;;;;;;;;;;;;;;;;110607;1274;8787;-75
2021/12/05 17:33:57;;;;;;;;;;;;;;;;;;110960;1274;10123;-75
2021/12/05 17:36:27;;;;;;;;;;;;;;;;;;110815;1276;8377;-79
2021/12/05 17:38:58;;;;;;;;;;;;;;;;;;110616;1276;7992;-76
2021/12/05 17:41:28;;;;;;;;;;;;;;;;;;110963;1274;9690;-75
2021/12/05 17:44:00;;;;;;;;;;;;;;;;;;110939;1274;7960;-75
2021/12/05 17:46:30;;;;;;;;;;;;;;;;;;110832;1276;7998;-75
2021/12/05 17:48:59;;;;;;;;;;;;;;;;;;110342;1276;8224;-79
2021/12/05 17:51:35;;;;;;;;;;;;;;;;;;110951;1276;8854;-77
2021/12/05 17:54:08;;;;;;;;;;;;;;;;;;110616;1276;8821;-79
2021/12/05 17:56:50;;;;;;;;;;;;;;;;;;110962;1276;8093;-75
2021/12/05 17:59:36;;;;;;;;;;;;;;;;;;110768;1277;7998;-76
2021/12/05 18:04:52;;;;;;;;;;;;;;;;;;110957;1274;9717;-79
2021/12/05 18:07:20;;;;;;;;;;;;;;;;;;110779;1275;7971;-80
2021/12/05 18:09:51;;;;;;;;;;;;;;;;;;110378;1279;8780;-79
2021/12/05 18:12:32;;;;;;;;;;;;;;;;;;110480;1276;10204;-76
2021/12/05 18:15:05;;;;;;;;;;;;;;;;;;110742;1277;8786;-80
2021/12/05 18:17:36;;;;;;;;;;;;;;;;;;110465;1277;8787;-76
2021/12/05 18:20:05;;;;;;;;;;;;;;;;;;110960;1275;8782;-76
2021/12/05 18:22:35;;;;;;;;;;;;;;;;;;110736;1276;8021;-77
2021/12/05 18:25:03;;;;;;;;;;;;;;;;;;110819;1275;8927;-76
2021/12/05 18:27:32;;;;;;;;;;;;;;;;;;110848;1276;9694;-76
2021/12/05 18:29:59;;;;;;;;;;;;;;;;;;110521;1276;8768;-76
2021/12/05 18:32:27;;;;;;;;;;;;;;;;;;110487;1278;9725;-79
2021/12/05 18:34:55;;;;;;;;;;;;;;;;;;110800;1276;8048;-77
2021/12/05 18:37:23;;;;;;;;;;;;;;;;;;110963;1275;8939;-77
2021/12/05 18:39:52;;;;;;;;;;;;;;;;;;110426;1277;8064;-79
2021/12/05 18:42:22;;;;;;;;;;;;;;;;;;110603;1276;9694;-77
2021/12/05 18:44:57;;;;;;;;;;;;;;;;;;110897;1276;9029;-77
2021/12/05 18:47:27;;;;;;;;;;;;;;;;;;110775;1276;8988;-78
2021/12/05 18:49:56;;;;;;;;;;;;;;;;;;110794;1276;9700;-77
2021/12/05 18:52:25;;;;;;;;;;;;;;;;;;110483;1278;8373;-78
2021/12/05 18:54:54;;;;;;;;;;;;;;;;;;110233;1278;9693;-81
2021/12/05 18:57:24;;;;;;;;;;;;;;;;;;110512;1277;8893;-81
2021/12/05 19:00:05;;;;;;;;;;;;;;;;;;110564;1278;8031;-82
2021/12/05 19:05:39;;;;;;;;;;;;;;;;;;110703;1275;8359;-80
2021/12/05 19:13:28;;;;;;;;;;;;;;;;;;110484;1276;8373;-80
2021/12/05 19:15:57;;;;;;;;;;;;;;;;;;110922;1276;9701;-76
2021/12/05 19:18:28;;;;;;;;;;;;;;;;;;110487;1276;9038;-75
2021/12/05 19:20:56;;;;;;;;;;;;;;;;;;110513;1279;8003;-78
2021/12/05 19:23:27;;;;;;;;;;;;;;;;;;110248;1278;9287;-76
2021/12/05 19:25:55;;;;;;;;;;;;;;;;;;110501;1277;8969;-77
2021/12/05 19:28:24;;;;;;;;;;;;;;;;;;110990;1274;7960;-78
2021/12/05 19:31:11;;;;;;;;;;;;;;;;;;110561;1276;8960;-77
2021/12/05 19:33:40;;;;;;;;;;;;;;;;;;110786;1277;9748;-78
2021/12/05 19:36:14;;;;;;;;;;;;;;;;;;110459;1277;8957;-77
2021/12/05 19:38:44;;;;;;;;;;;;;;;;;;110442;1277;9690;-76
2021/12/05 19:41:14;;;;;;;;;;;;;;;;;;110808;1276;8784;-78
2021/12/05 19:43:44;;;;;;;;;;;;;;;;;;110452;1277;8011;-78
2021/12/05 19:46:25;;;;;;;;;;;;;;;;;;110475;1278;9697;-78
2021/12/05 19:48:59;;;;;;;;;;;;;;;;;;110484;1277;8990;-78
2021/12/05 19:51:27;;;;;;;;;;;;;;;;;;110228;1277;9099;-77
2021/12/05 19:53:56;;;;;;;;;;;;;;;;;;110444;1277;8002;-77
2021/12/05 19:56:26;;;;;;;;;;;;;;;;;;110229;1278;8886;-78
2021/12/05 19:58:55;;;;;;;;;;;;;;;;;;110359;1280;9743;-77
2021/12/05 20:01:23;;;;;;;;;;;;;;;;;;110235;1278;7965;-77
2021/12/05 20:03:51;;;;;;;;;;;;;;;;;;110935;1276;8371;-76
2021/12/05 20:06:19;;;;;;;;;;;;;;;;;;110970;1273;8093;-74
2021/12/05 20:08:49;;;;;;;;;;;;;;;;;;110984;1276;8784;-77
2021/12/05 20:11:18;;;;;;;;;;;;;;;;;;110232;1279;9697;-78
2021/12/05 20:13:47;;;;;;;;;;;;;;;;;;110492;1278;8030;-79
2021/12/05 20:16:14;;;;;;;;;;;;;;;;;;110939;1274;9691;-77
2021/12/05 20:18:45;;;;;;;;;;;;;;;;;;110954;1274;7962;-77
2021/12/05 20:21:32;;;;;;;;;;;;;;;;;;110886;1276;9800;-79
2021/12/05 20:24:02;;;;;;;;;;;;;;;;;;110889;1276;9694;-79
2021/12/05 20:26:30;;;;;;;;;;;;;;;;;;110950;1276;9035;-78
2021/12/05 20:28:58;;;;;;;;;;;;;;;;;;110946;1274;8020;-77
2021/12/05 20:31:26;;;;;;;;;;;;;;;;;;110495;1278;8260;-76
2021/12/05 20:33:55;;;;;;;;;;;;;;;;;;110757;1277;9708;-76
2021/12/05 20:36:24;;;;;;;;;;;;;;;;;;110800;1277;8371;-76
2021/12/05 20:38:52;;;;;;;;;;;;;;;;;;110800;1277;8782;-76
2021/12/05 20:41:20;;;;;;;;;;;;;;;;;;110651;1273;161444;-76
2021/12/05 20:43:49;;;;;;;;;;;;;;;;;;110721;1277;9707;-76
2021/12/05 20:46:18;;;;;;;;;;;;;;;;;;110774;1277;9702;-76
2021/12/05 20:48:46;;;;;;;;;;;;;;;;;;110773;1274;7975;-76
2021/12/05 20:51:15;;;;;;;;;;;;;;;;;;110932;1276;8374;-75
2021/12/05 20:53:43;;;;;;;;;;;;;;;;;;110983;1273;9687;-76
2021/12/05 20:56:14;;;;;;;;;;;;;;;;;;110782;1277;8081;-77
2021/12/05 20:58:42;;;;;;;;;;;;;;;;;;110771;1277;8063;-78
2021/12/05 21:01:10;;;;;;;;;;;;;;;;;;110832;1276;8968;-76
2021/12/05 21:03:41;;;;;;;;;;;;;;;;;;110415;1277;9205;-76
2021/12/05 21:06:10;;;;;;;;;;;;;;;;;;110779;1276;8027;-76
2021/12/05 21:08:39;;;;;;;;;;;;;;;;;;110215;1279;9701;-76
2021/12/05 21:11:14;;;;;;;;;;;;;;;;;;110325;1277;8373;-77
2021/12/05 21:13:43;;;;;;;;;;;;;;;;;;110657;1276;8835;-75
2021/12/05 21:16:11;;;;;;;;;;;;;;;;;;110533;1276;9688;-76
2021/12/05 21:18:43;;;;;;;;;;;;;;;;;;110830;1274;7960;-75
2021/12/05 21:21:17;;;;;;;;;;;;;;;;;;110852;1276;8788;-75
2021/12/05 21:23:46;;;;;;;;;;;;;;;;;;110503;1277;8024;-76
2021/12/05 21:26:15;;;;;;;;;;;;;;;;;;110856;1276;9753;-74
2021/12/05 21:28:43;;;;;;;;;;;;;;;;;;110970;1276;8084;-80
2021/12/05 21:31:12;;;;;;;;;;;;;;;;;;110919;1274;8911;-78
2021/12/05 21:33:40;;;;;;;;;;;;;;;;;;110496;1276;9719;-78
2021/12/05 21:36:12;;;;;;;;;;;;;;;;;;110914;1276;9701;-77
2021/12/05 21:38:42;;;;;;;;;;;;;;;;;;110755;1277;9280;-76
2021/12/05 21:41:14;;;;;;;;;;;;;;;;;;110790;1277;9731;-75
2021/12/05 21:43:44;;;;;;;;;;;;;;;;;;110784;1277;9693;-76
2021/12/05 21:46:16;;;;;;;;;;;;;;;;;;110493;1277;8756;-76
2021/12/05 21:48:47;;;;;;;;;;;;;;;;;;110775;1277;8410;-76
2021/12/05 21:51:16;;;;;;;;;;;;;;;;;;110308;1277;8373;-76
2021/12/05 21:53:47;;;;;;;;;;;;;;;;;;110900;1276;9700;-76
2021/12/05 21:56:16;;;;;;;;;;;;;;;;;;110935;1274;8098;-76
2021/12/05 21:58:45;;;;;;;;;;;;;;;;;;110958;1276;9035;-77
2021/12/05 22:01:15;;;;;;;;;;;;;;;;;;110827;1276;8782;-76
2021/12/05 22:03:44;;;;;;;;;;;;;;;;;;110962;1275;8008;-76
2021/12/05 22:06:13;;;;;;;;;;;;;;;;;;110960;1276;9154;-76
2021/12/05 22:08:43;;;;;;;;;;;;;;;;;;110475;1276;8808;-77
2021/12/05 22:11:11;;;;;;;;;;;;;;;;;;110950;1276;9717;-75
2021/12/05 22:13:41;;;;;;;;;;;;;;;;;;110585;1276;8599;-76
2021/12/05 22:16:09;;;;;;;;;;;;;;;;;;110946;1276;8375;-76
2021/12/05 22:18:43;;;;;;;;;;;;;;;;;;110948;1276;9689;-76
2021/12/05 22:21:15;;;;;;;;;;;;;;;;;;110561;1276;9689;-76
2021/12/05 22:24:04;;;;;;;;;;;;;;;;;;110444;1277;9690;-76
2021/12/05 22:26:33;;;;;;;;;;;;;;;;;;110485;1278;9789;-75
2021/12/05 22:29:04;;;;;;;;;;;;;;;;;;110469;1278;8373;-75
2021/12/05 22:31:37;;;;;;;;;;;;;;;;;;110961;1276;8063;-75
2021/12/05 22:34:24;;;;;;;;;;;;;;;;;;110951;1276;8781;-76
2021/12/05 22:36:52;;;;;;;;;;;;;;;;;;110972;1276;8008;-77
2021/12/05 22:39:20;;;;;;;;;;;;;;;;;;110434;1277;8924;-76
2021/12/05 22:41:48;;;;;;;;;;;;;;;;;;110446;1276;8462;-76
2021/12/05 22:44:16;;;;;;;;;;;;;;;;;;110434;1278;9711;-77
2021/12/05 22:46:44;;;;;;;;;;;;;;;;;;110956;1276;7999;-77
2021/12/05 22:49:12;;;;;;;;;;;;;;;;;;110968;1276;9575;-77
2021/12/05 22:51:41;;;;;;;;;;;;;;;;;;110941;1276;9676;-77
2021/12/05 22:54:09;;;;;;;;;;;;;;;;;;110945;1276;8358;-77
2021/12/05 22:56:38;;;;;;;;;;;;;;;;;;110467;1277;8761;-77
2021/12/05 22:59:06;;;;;;;;;;;;;;;;;;110945;1275;7990;-77
2021/12/05 23:01:34;;;;;;;;;;;;;;;;;;110938;1274;9698;-76
2021/12/05 23:04:05;;;;;;;;;;;;;;;;;;110792;1277;8817;-77
2021/12/05 23:06:34;;;;;;;;;;;;;;;;;;110970;1274;8368;-77
2021/12/05 23:09:06;;;;;;;;;;;;;;;;;;110977;1274;9769;-79
2021/12/05 23:11:34;;;;;;;;;;;;;;;;;;110970;1274;9719;-77
2021/12/05 23:14:04;;;;;;;;;;;;;;;;;;110968;1274;9058;-77
2021/12/05 23:16:32;;;;;;;;;;;;;;;;;;110959;1274;8782;-76
2021/12/05 23:19:00;;;;;;;;;;;;;;;;;;110780;1276;9727;-76
2021/12/05 23:21:39;;;;;;;;;;;;;;;;;;110962;1274;7955;-76
2021/12/05 23:24:09;;;;;;;;;;;;;;;;;;110977;1276;8852;-77